Time;durP1;ratioP1;P1;durP2;ratioP2;P2;SDS_P1;SDS_P2;PMS_P1;PMS_P2;Temp;Humidity;BMP_temperature;BMP_pressure;BME280_temperature;BME280_humidity;BME280_pressure;Samples;Min_cycle;Max_cycle;Signal;HPM_P1;HPM_P2
2021/10/11 00:00:37;;;;;;;12.50;3.33;;;12.10;99.90;;;;;;5087387;28;20044;-67
2021/10/11 00:03:03;;;;;;;11.90;2.92;;;12.00;99.90;;;;;;5084997;28;20131;-67
2021/10/11 00:05:29;;;;;;;10.93;2.88;;;12.00;99.90;;;;;;5086085;28;20035;-67
2021/10/11 00:07:55;;;;;;;10.43;2.45;;;11.90;99.90;;;;;;5084883;28;20052;-67
2021/10/11 00:10:20;;;;;;;7.43;2.53;;;11.90;99.90;;;;;;5084597;28;20056;-68
2021/10/11 00:12:48;;;;;;;12.07;2.88;;;11.80;99.90;;;;;;5086395;28;20048;-67
2021/10/11 00:15:14;;;;;;;12.02;2.75;;;11.80;99.90;;;;;;5081552;28;20044;-67
2021/10/11 00:17:41;;;;;;;9.25;2.17;;;11.70;99.90;;;;;;5089627;28;20059;-67
2021/10/11 00:20:07;;;;;;;8.48;2.22;;;11.60;99.90;;;;;;5087656;28;20079;-67
2021/10/11 00:22:33;;;;;;;10.40;2.92;;;11.60;99.90;;;;;;5090374;28;20052;-67
2021/10/11 00:24:58;;;;;;;9.82;2.17;;;11.60;99.90;;;;;;5092045;28;20110;-67
2021/10/11 00:27:24;;;;;;;8.75;2.33;;;11.50;99.90;;;;;;5083617;28;20068;-67
2021/10/11 00:29:50;;;;;;;9.30;2.28;;;11.40;99.90;;;;;;5086216;28;20047;-67
2021/10/11 00:32:15;;;;;;;15.13;2.63;;;11.40;99.90;;;;;;5084510;28;20048;-67
2021/10/11 00:34:42;;;;;;;10.60;2.15;;;11.30;99.90;;;;;;5084041;28;20055;-67
2021/10/11 00:37:08;;;;;;;11.65;2.28;;;11.30;99.90;;;;;;5085975;28;20110;-67
2021/10/11 00:39:34;;;;;;;13.77;3.28;;;11.20;99.90;;;;;;5084243;28;20190;-67
2021/10/11 00:42:00;;;;;;;11.50;2.47;;;11.20;99.90;;;;;;5084266;28;20061;-67
2021/10/11 00:44:26;;;;;;;10.73;2.33;;;11.20;99.90;;;;;;5085262;28;20045;-67
2021/10/11 00:46:52;;;;;;;12.88;2.80;;;11.20;99.90;;;;;;5086058;28;20047;-68
2021/10/11 00:49:18;;;;;;;7.85;2.38;;;11.20;99.90;;;;;;5089735;28;20044;-67
2021/10/11 00:51:44;;;;;;;9.85;2.47;;;11.20;99.90;;;;;;5085316;28;20488;-67
2021/10/11 00:54:10;;;;;;;10.38;2.55;;;11.10;99.90;;;;;;5084301;28;20096;-67
2021/10/11 00:56:36;;;;;;;8.25;2.00;;;11.10;99.90;;;;;;5085151;28;20048;-67
2021/10/11 00:59:02;;;;;;;7.93;1.98;;;11.00;99.90;;;;;;5083887;28;20040;-67
2021/10/11 01:01:28;;;;;;;10.88;2.10;;;11.00;99.90;;;;;;5084537;28;20063;-67
2021/10/11 01:03:54;;;;;;;9.38;2.35;;;11.00;99.90;;;;;;5087197;28;20105;-67
2021/10/11 01:06:20;;;;;;;8.60;2.00;;;11.00;99.90;;;;;;5083828;28;20087;-67
2021/10/11 01:08:46;;;;;;;12.10;2.60;;;10.90;99.90;;;;;;5089479;28;20044;-67
2021/10/11 01:11:12;;;;;;;7.22;2.47;;;10.90;99.90;;;;;;5085079;28;20059;-67
2021/10/11 01:13:38;;;;;;;12.88;2.85;;;10.90;99.90;;;;;;5085875;28;20045;-67
2021/10/11 01:16:04;;;;;;;8.18;2.53;;;10.90;99.90;;;;;;5083780;28;20191;-67
2021/10/11 01:18:30;;;;;;;8.30;2.40;;;10.90;99.90;;;;;;5089404;28;20072;-67
2021/10/11 01:20:55;;;;;;;9.32;2.60;;;10.90;99.90;;;;;;5085421;28;20044;-67
2021/10/11 01:23:25;;;;;;;13.18;2.75;;;10.90;99.90;;;;;;5083656;28;20068;-67
2021/10/11 01:25:52;;;;;;;7.53;2.88;;;11.00;99.90;;;;;;5083547;28;20401;-67
2021/10/11 01:28:18;;;;;;;7.65;2.65;;;11.00;99.90;;;;;;5082672;28;20048;-67
2021/10/11 01:30:44;;;;;;;10.90;2.28;;;11.10;99.90;;;;;;5083997;28;20074;-67
2021/10/11 01:33:10;;;;;;;10.45;2.33;;;11.00;99.90;;;;;;5083212;28;20044;-67
2021/10/11 01:35:36;;;;;;;11.15;2.22;;;11.00;99.90;;;;;;5083112;28;20396;-67
2021/10/11 01:38:02;;;;;;;16.60;3.08;;;11.00;99.90;;;;;;5082867;28;20069;-67
2021/10/11 01:40:28;;;;;;;10.93;2.70;;;11.00;99.90;;;;;;5086853;28;20460;-67
2021/10/11 01:42:54;;;;;;;6.32;2.05;;;11.00;99.90;;;;;;5082907;28;20048;-67
2021/10/11 01:45:20;;;;;;;16.30;3.10;;;10.90;99.90;;;;;;5084660;28;20044;-67
2021/10/11 01:47:46;;;;;;;11.23;2.42;;;10.90;99.90;;;;;;5086468;28;20060;-67
2021/10/11 01:50:11;;;;;;;14.13;2.90;;;10.80;99.90;;;;;;5083520;28;20124;-67
2021/10/11 01:52:39;;;;;;;7.35;1.90;;;10.80;99.90;;;;;;5084360;28;20106;-67
2021/10/11 01:55:07;;;;;;;13.13;2.53;;;10.70;99.90;;;;;;5083934;28;20053;-67
2021/10/11 01:57:33;;;;;;;11.48;1.95;;;10.70;99.90;;;;;;5077403;28;20048;-67
2021/10/11 01:59:59;;;;;;;8.30;2.10;;;10.60;99.90;;;;;;5083673;28;20032;-67
2021/10/11 02:02:27;;;;;;;7.95;2.30;;;10.60;99.90;;;;;;5083868;28;20110;-67
2021/10/11 02:04:53;;;;;;;8.32;2.50;;;10.60;99.90;;;;;;5083028;28;20074;-67
2021/10/11 02:07:19;;;;;;;8.40;2.20;;;10.60;99.90;;;;;;5084010;28;20112;-67
2021/10/11 02:09:44;;;;;;;6.95;1.85;;;10.60;99.90;;;;;;5082545;28;20067;-67
2021/10/11 02:12:10;;;;;;;11.93;2.60;;;10.70;99.90;;;;;;5082876;28;20057;-67
2021/10/11 02:14:36;;;;;;;11.82;2.28;;;10.70;99.90;;;;;;5082853;28;20123;-67
2021/10/11 02:17:02;;;;;;;9.25;2.72;;;10.70;99.90;;;;;;5090240;28;20050;-67
2021/10/11 02:19:28;;;;;;;9.18;2.42;;;10.70;99.90;;;;;;5084808;28;20043;-67
2021/10/11 02:21:54;;;;;;;8.85;2.20;;;10.70;99.90;;;;;;5082527;28;20477;-67
2021/10/11 02:24:20;;;;;;;13.57;2.60;;;10.70;99.90;;;;;;5088191;28;20059;-67
2021/10/11 02:26:45;;;;;;;8.73;1.80;;;10.70;99.90;;;;;;5049872;28;20044;-67
2021/10/11 02:29:11;;;;;;;12.15;2.00;;;10.60;99.90;;;;;;5083710;28;20041;-67
2021/10/11 02:31:37;;;;;;;8.88;1.85;;;10.60;99.90;;;;;;5082456;28;20074;-67
2021/10/11 02:34:02;;;;;;;10.70;2.42;;;10.50;99.90;;;;;;5089548;28;20531;-67
2021/10/11 02:36:28;;;;;;;9.57;2.20;;;10.50;99.90;;;;;;5083400;28;20045;-67
2021/10/11 02:38:54;;;;;;;10.82;2.05;;;10.50;99.90;;;;;;5082577;28;20060;-67
2021/10/11 02:41:21;;;;;;;10.05;1.75;;;10.50;99.90;;;;;;5080236;28;20060;-67
2021/10/11 02:43:47;;;;;;;8.63;2.30;;;10.40;99.90;;;;;;5087948;28;20044;-67
2021/10/11 02:46:13;;;;;;;8.93;2.10;;;10.40;99.90;;;;;;5084028;28;20040;-67
2021/10/11 02:48:39;;;;;;;7.93;2.30;;;10.30;99.90;;;;;;5084827;28;20084;-67
2021/10/11 02:51:05;;;;;;;6.93;2.20;;;10.30;99.90;;;;;;5084467;28;20059;-67
2021/10/11 02:53:30;;;;;;;12.07;3.67;;;10.30;99.90;;;;;;5069333;28;20052;-67
2021/10/11 02:55:56;;;;;;;7.47;1.80;;;10.30;99.90;;;;;;5082116;28;20036;-67
2021/10/11 02:58:22;;;;;;;10.50;1.90;;;10.20;99.90;;;;;;5083122;28;20037;-67
2021/10/11 03:00:48;;;;;;;8.75;2.28;;;10.30;99.90;;;;;;5083137;28;20108;-67
2021/10/11 03:03:14;;;;;;;5.72;1.75;;;10.20;99.90;;;;;;5083627;28;20048;-67
2021/10/11 03:05:39;;;;;;;6.57;1.90;;;10.20;99.90;;;;;;5083589;28;20044;-67
2021/10/11 03:08:05;;;;;;;8.27;2.00;;;10.10;99.90;;;;;;5084901;28;20052;-67
2021/10/11 03:10:31;;;;;;;10.00;1.95;;;10.00;99.90;;;;;;5087634;28;20049;-67
2021/10/11 03:12:56;;;;;;;8.48;1.85;;;9.90;99.90;;;;;;5085710;28;20047;-67
2021/10/11 03:15:22;;;;;;;6.55;2.03;;;9.80;99.90;;;;;;5086848;28;20079;-67
2021/10/11 03:17:48;;;;;;;4.43;1.70;;;9.80;99.90;;;;;;5086157;28;20037;-67
2021/10/11 03:20:13;;;;;;;7.22;1.65;;;9.80;99.90;;;;;;5085798;28;20048;-67
2021/10/11 03:22:39;;;;;;;7.35;1.85;;;9.80;99.90;;;;;;5082818;28;20040;-67
2021/10/11 03:25:05;;;;;;;9.43;2.50;;;9.80;99.90;;;;;;5086925;28;20054;-67
2021/10/11 03:27:31;;;;;;;8.90;1.92;;;9.80;99.90;;;;;;5085110;28;20048;-67
2021/10/11 03:29:57;;;;;;;10.00;2.55;;;9.80;99.90;;;;;;5085468;28;20068;-67
2021/10/11 03:32:23;;;;;;;15.07;3.10;;;9.70;99.90;;;;;;5086381;28;20044;-67
2021/10/11 03:34:48;;;;;;;7.63;2.00;;;9.70;99.90;;;;;;5097479;28;20036;-67
2021/10/11 03:37:14;;;;;;;10.05;2.70;;;9.70;99.90;;;;;;5068761;28;20048;-67
2021/10/11 03:39:40;;;;;;;7.40;2.38;;;9.70;99.90;;;;;;5085521;28;20173;-67
2021/10/11 03:42:07;;;;;;;12.68;2.97;;;9.70;99.90;;;;;;5086085;28;20127;-67
2021/10/11 03:44:32;;;;;;;8.63;2.53;;;9.60;99.90;;;;;;5086436;28;20119;-67
2021/10/11 03:46:58;;;;;;;12.18;2.88;;;9.70;99.90;;;;;;5068593;28;20072;-67
2021/10/11 03:49:24;;;;;;;12.00;2.38;;;9.70;99.90;;;;;;5086576;28;20045;-67
2021/10/11 03:51:49;;;;;;;7.85;2.67;;;9.70;99.90;;;;;;5085857;28;20048;-67
2021/10/11 03:54:15;;;;;;;7.97;2.25;;;9.70;99.90;;;;;;5085935;28;20052;-67
2021/10/11 03:56:44;;;;;;;13.75;2.55;;;9.80;99.90;;;;;;5079575;28;20123;-67
2021/10/11 03:59:10;;;;;;;9.15;2.08;;;9.70;99.90;;;;;;5073097;28;20056;-67
2021/10/11 04:01:36;;;;;;;7.07;2.13;;;9.70;99.90;;;;;;5073628;28;20052;-67
2021/10/11 04:04:02;;;;;;;11.80;2.58;;;9.70;99.90;;;;;;5091280;28;20043;-69
2021/10/11 04:06:28;;;;;;;11.63;2.58;;;9.70;99.90;;;;;;5086566;28;20044;-67
2021/10/11 04:08:55;;;;;;;10.93;2.97;;;9.70;99.90;;;;;;5085173;28;20060;-67
2021/10/11 04:11:23;;;;;;;9.85;2.33;;;9.70;99.90;;;;;;5096725;28;20052;-67
2021/10/11 04:13:48;;;;;;;11.25;2.28;;;9.70;99.90;;;;;;5096053;28;20119;-67
2021/10/11 04:16:14;;;;;;;10.98;1.88;;;9.80;99.90;;;;;;5086052;28;20052;-68
2021/10/11 04:18:41;;;;;;;10.35;2.65;;;9.80;99.90;;;;;;5084703;28;20079;-67
2021/10/11 04:21:06;;;;;;;9.45;2.75;;;9.90;99.90;;;;;;5085802;28;20051;-67
2021/10/11 04:23:33;;;;;;;10.25;2.00;;;9.90;99.90;;;;;;5085571;28;20036;-67
2021/10/11 04:25:59;;;;;;;11.18;2.10;;;9.90;99.90;;;;;;5085961;28;20049;-67
2021/10/11 04:28:24;;;;;;;8.43;2.22;;;9.90;99.90;;;;;;5083711;28;20504;-68
2021/10/11 04:30:50;;;;;;;11.85;2.50;;;9.90;99.90;;;;;;5084594;28;20041;-67
2021/10/11 04:33:17;;;;;;;11.73;1.98;;;9.90;99.90;;;;;;5068941;28;20044;-67
2021/10/11 04:35:43;;;;;;;8.65;1.63;;;9.90;99.90;;;;;;5085875;28;20299;-67
2021/10/11 04:38:09;;;;;;;7.00;2.58;;;9.90;99.90;;;;;;5083808;28;20056;-65
2021/10/11 04:40:36;;;;;;;12.48;2.35;;;9.90;99.90;;;;;;5084982;28;20044;-65
2021/10/11 04:43:01;;;;;;;9.18;2.35;;;10.00;99.90;;;;;;5092519;28;20048;-66
2021/10/11 04:45:30;;;;;;;7.45;1.95;;;10.00;99.90;;;;;;5085390;28;20076;-65
2021/10/11 04:48:05;;;;;;;10.93;2.70;;;9.90;99.90;;;;;;5041746;28;20578;-66
2021/10/11 04:50:33;;;;;;;9.10;2.63;;;9.90;99.90;;;;;;5082563;28;20044;-67
2021/10/11 04:52:59;;;;;;;6.05;1.90;;;9.90;99.90;;;;;;5082152;28;20105;-67
2021/10/11 04:55:26;;;;;;;8.65;2.53;;;9.90;99.90;;;;;;5082694;28;20116;-68
2021/10/11 04:57:51;;;;;;;8.77;2.03;;;9.90;99.90;;;;;;5084145;28;20065;-68
2021/10/11 05:00:19;;;;;;;10.63;1.92;;;9.80;99.90;;;;;;5084284;28;20131;-68
2021/10/11 05:02:45;;;;;;;5.30;1.50;;;9.80;99.90;;;;;;5082619;28;20108;-67
2021/10/11 05:05:11;;;;;;;7.72;2.47;;;9.80;99.90;;;;;;5083098;28;20048;-68
2021/10/11 05:07:37;;;;;;;8.80;2.28;;;9.80;99.90;;;;;;5082841;28;20457;-67
2021/10/11 05:10:04;;;;;;;10.23;2.25;;;9.70;99.90;;;;;;5083262;28;20029;-68
2021/10/11 05:12:29;;;;;;;7.60;1.90;;;9.70;99.90;;;;;;5082367;28;20041;-67
2021/10/11 05:14:55;;;;;;;4.32;1.40;;;9.80;99.90;;;;;;5088058;28;20058;-67
2021/10/11 05:17:21;;;;;;;10.63;2.28;;;9.70;99.90;;;;;;5081249;28;20046;-67
2021/10/11 05:19:47;;;;;;;8.80;1.98;;;9.70;99.90;;;;;;5081512;28;20032;-72
2021/10/11 05:22:12;;;;;;;8.50;2.35;;;9.70;99.90;;;;;;5084614;28;20048;-65
2021/10/11 05:24:39;;;;;;;6.80;1.75;;;9.70;99.90;;;;;;5081799;28;20045;-65
2021/10/11 05:27:04;;;;;;;8.18;1.92;;;9.70;99.90;;;;;;5086873;28;20044;-66
2021/10/11 05:29:30;;;;;;;10.00;1.73;;;9.70;99.90;;;;;;5083530;28;20392;-66
2021/10/11 05:31:56;;;;;;;9.15;2.30;;;9.70;99.90;;;;;;5083486;28;20048;-66
2021/10/11 05:34:22;;;;;;;11.00;2.00;;;9.60;99.90;;;;;;5082608;28;20037;-65
2021/10/11 05:36:48;;;;;;;8.02;1.85;;;9.60;99.90;;;;;;5083323;28;20409;-66
2021/10/11 05:39:14;;;;;;;14.43;2.35;;;9.60;99.90;;;;;;5082289;28;20045;-66
2021/10/11 05:41:39;;;;;;;10.30;2.20;;;9.60;99.90;;;;;;5084317;28;20123;-65
2021/10/11 05:44:05;;;;;;;14.05;2.92;;;9.60;99.90;;;;;;5085372;28;20040;-65
2021/10/11 05:46:31;;;;;;;12.13;2.08;;;9.60;99.90;;;;;;5083510;28;20055;-65
2021/10/11 05:48:57;;;;;;;8.50;2.10;;;9.60;99.90;;;;;;5080802;28;20052;-65
2021/10/11 05:51:23;;;;;;;8.55;1.70;;;9.60;99.90;;;;;;5086390;28;20144;-65
2021/10/11 05:53:48;;;;;;;11.43;1.83;;;9.60;99.90;;;;;;5081765;28;20056;-65
2021/10/11 05:56:14;;;;;;;8.98;2.30;;;9.60;99.90;;;;;;5082683;28;20497;-66
2021/10/11 05:58:39;;;;;;;10.13;2.00;;;9.50;99.90;;;;;;5083556;28;20059;-66
2021/10/11 06:01:05;;;;;;;7.88;2.03;;;9.50;99.90;;;;;;5083449;28;20040;-66
2021/10/11 06:03:31;;;;;;;13.65;2.50;;;9.50;99.90;;;;;;5081289;28;20044;-66
2021/10/11 06:05:56;;;;;;;10.35;1.85;;;9.50;99.90;;;;;;5062088;27;20043;-65
2021/10/11 06:08:22;;;;;;;9.45;1.90;;;9.50;99.90;;;;;;5072149;28;20439;-65
2021/10/11 06:10:48;;;;;;;7.97;1.90;;;9.50;99.90;;;;;;5058276;28;20091;-66
2021/10/11 06:13:14;;;;;;;9.70;2.20;;;9.40;99.90;;;;;;5069745;28;20074;-66
2021/10/11 06:15:39;;;;;;;8.73;2.28;;;9.40;99.90;;;;;;5070900;28;20044;-66
2021/10/11 06:18:05;;;;;;;13.63;2.20;;;9.30;99.90;;;;;;5078529;28;20176;-66
2021/10/11 06:20:31;;;;;;;11.18;1.92;;;9.30;99.90;;;;;;5079195;28;20508;-66
2021/10/11 06:22:56;;;;;;;10.20;2.22;;;9.30;99.90;;;;;;5068388;28;20048;-66
2021/10/11 06:25:22;;;;;;;10.55;2.47;;;9.30;99.90;;;;;;5076486;28;20040;-65
2021/10/11 06:27:48;;;;;;;11.57;2.38;;;9.20;99.90;;;;;;5076459;28;20083;-65
2021/10/11 06:30:14;;;;;;;10.27;2.35;;;9.20;99.90;;;;;;5070960;28;20143;-66
2021/10/11 06:32:41;;;;;;;17.13;2.10;;;9.30;99.90;;;;;;5067653;28;20064;-66
2021/10/11 06:35:07;;;;;;;8.93;2.30;;;9.20;99.90;;;;;;5075455;28;20122;-65
2021/10/11 06:37:33;;;;;;;10.98;2.30;;;9.20;99.90;;;;;;5070213;28;20090;-66
2021/10/11 06:39:58;;;;;;;13.88;2.40;;;9.20;99.90;;;;;;5079743;28;20053;-66
2021/10/11 06:42:24;;;;;;;14.68;2.38;;;9.20;99.90;;;;;;5069269;28;20044;-65
2021/10/11 06:44:50;;;;;;;11.00;2.40;;;9.20;99.90;;;;;;5071973;28;20041;-66
2021/10/11 06:47:16;;;;;;;11.18;2.08;;;9.30;99.90;;;;;;5067178;28;20051;-65
2021/10/11 06:49:46;;;;;;;14.73;2.47;;;9.30;99.90;;;;;;5083465;28;20048;-66
2021/10/11 06:52:13;;;;;;;;;;;9.30;99.90;;;;;;5074140;28;20056;-65
2021/10/11 06:54:39;;;;;;;11.02;2.47;;;9.30;99.90;;;;;;5076412;28;19928;-66
2021/10/11 06:57:05;;;;;;;12.43;2.05;;;9.40;99.90;;;;;;5073528;28;20047;-66
2021/10/11 06:59:30;;;;;;;9.35;2.20;;;9.40;99.90;;;;;;5078146;28;20045;-66
2021/10/11 07:01:56;;;;;;;11.82;2.47;;;9.50;99.90;;;;;;5072394;28;20052;-66
2021/10/11 07:04:22;;;;;;;10.15;2.58;;;9.60;99.90;;;;;;5085419;28;20053;-66
2021/10/11 07:06:48;;;;;;;10.00;2.22;;;9.60;99.90;;;;;;5066153;28;20048;-66
2021/10/11 07:09:13;;;;;;;13.93;3.13;;;9.70;99.90;;;;;;5073415;28;20045;-65
2021/10/11 07:11:39;;;;;;;9.80;2.40;;;9.80;99.90;;;;;;5072628;28;20078;-65
2021/10/11 07:14:05;;;;;;;11.50;2.70;;;9.90;99.90;;;;;;5055367;28;20080;-65
2021/10/11 07:16:31;;;;;;;12.15;2.30;;;9.90;99.90;;;;;;5085494;28;20048;-65
2021/10/11 07:18:57;;;;;;;12.80;2.38;;;10.00;99.90;;;;;;5084218;28;20048;-65
2021/10/11 07:21:23;;;;;;;9.85;2.17;;;10.10;99.90;;;;;;5072507;28;20163;-65
2021/10/11 07:23:49;;;;;;;10.52;2.35;;;10.20;99.90;;;;;;5069702;28;20060;-65
2021/10/11 07:26:14;;;;;;;13.25;2.35;;;10.30;99.90;;;;;;5071525;28;20056;-65
2021/10/11 07:28:40;;;;;;;10.48;2.30;;;10.40;99.90;;;;;;5084982;28;20037;-65
2021/10/11 07:31:06;;;;;;;9.77;2.38;;;10.50;99.90;;;;;;5081534;28;20181;-65
2021/10/11 07:33:32;;;;;;;14.48;2.80;;;10.50;99.90;;;;;;5071577;28;20052;-65
2021/10/11 07:35:58;;;;;;;10.48;2.47;;;10.60;99.90;;;;;;5072198;28;20363;-66
2021/10/11 07:38:24;;;;;;;11.77;2.20;;;10.70;99.90;;;;;;5093404;28;20051;-62
2021/10/11 07:40:51;;;;;;;9.88;2.50;;;10.70;99.90;;;;;;5078630;28;20048;-63
2021/10/11 07:43:17;;;;;;;7.38;2.25;;;10.80;99.90;;;;;;5069702;28;20079;-63
2021/10/11 07:45:43;;;;;;;11.07;2.70;;;10.80;99.90;;;;;;5081765;28;20048;-63
2021/10/11 07:48:09;;;;;;;9.10;1.90;;;10.90;99.90;;;;;;5063249;28;20102;-63
2021/10/11 07:50:35;;;;;;;9.68;1.90;;;10.90;99.90;;;;;;5077357;28;20146;-63
2021/10/11 07:53:00;;;;;;;12.93;1.90;;;11.00;99.90;;;;;;5057056;28;20071;-63
2021/10/11 07:55:26;;;;;;;8.80;2.30;;;11.00;99.90;;;;;;5073500;28;20056;-64
2021/10/11 07:57:52;;;;;;;14.80;2.70;;;11.10;99.90;;;;;;5064688;28;20519;-63
2021/10/11 08:00:19;;;;;;;20.50;2.88;;;11.10;99.90;;;;;;5079307;28;20435;-63
2021/10/11 08:02:47;;;;;;;12.40;2.47;;;11.20;99.90;;;;;;5071062;28;20048;-63
2021/10/11 08:05:15;;;;;;;15.43;2.63;;;11.20;99.90;;;;;;5065994;28;20391;-63
2021/10/11 08:07:44;;;;;;;13.63;3.15;;;11.20;99.90;;;;;;5072244;28;20271;-63
2021/10/11 08:10:11;;;;;;;10.40;2.25;;;11.20;99.90;;;;;;5080326;28;20102;-63
2021/10/11 08:12:37;;;;;;;9.25;2.20;;;11.20;99.90;;;;;;5071860;28;20044;-63
2021/10/11 08:15:05;;;;;;;12.05;1.90;;;11.20;99.90;;;;;;5079607;28;20052;-62
2021/10/11 08:17:30;;;;;;;13.43;2.88;;;11.30;99.90;;;;;;5065927;28;20048;-63
2021/10/11 08:19:56;;;;;;;9.90;2.83;;;11.30;99.90;;;;;;5082656;28;20044;-63
2021/10/11 08:22:23;;;;;;;11.68;2.47;;;11.30;99.90;;;;;;5070700;28;20058;-63
2021/10/11 08:24:51;;;;;;;11.23;2.45;;;11.40;99.90;;;;;;5083990;28;20067;-63
2021/10/11 08:27:17;;;;;;;11.70;2.40;;;11.40;99.90;;;;;;5074595;28;20131;-62
2021/10/11 08:29:51;;;;;;;12.25;3.25;;;11.40;99.90;;;;;;5088716;28;20413;-63
2021/10/11 08:32:18;;;;;;;13.25;2.70;;;11.40;99.90;;;;;;5071101;28;20087;-63
2021/10/11 08:34:44;;;;;;;9.68;1.80;;;11.40;99.90;;;;;;5089185;28;20172;-64
2021/10/11 08:37:10;;;;;;;10.48;2.25;;;11.50;99.90;;;;;;5071072;28;20116;-64
2021/10/11 08:39:36;;;;;;;12.40;2.60;;;11.50;99.90;;;;;;5076670;28;20051;-63
2021/10/11 08:42:04;;;;;;;11.07;2.58;;;11.50;99.90;;;;;;5033485;28;20471;-65
2021/10/11 08:44:30;;;;;;;13.93;2.90;;;11.50;99.90;;;;;;5081349;28;20075;-63
2021/10/11 08:46:56;;;;;;;10.75;2.22;;;11.60;99.90;;;;;;5085017;28;20060;-63
2021/10/11 08:49:23;;;;;;;10.10;2.00;;;11.60;99.90;;;;;;5097291;28;20512;-64
2021/10/11 08:51:48;;;;;;;12.20;2.78;;;11.70;99.90;;;;;;5091792;28;20173;-63
2021/10/11 08:54:14;;;;;;;9.85;2.08;;;11.70;99.90;;;;;;5097883;28;20106;-63
2021/10/11 08:56:40;;;;;;;13.38;2.22;;;11.80;99.90;;;;;;5091411;28;20097;-63
2021/10/11 08:59:05;;;;;;;11.80;2.20;;;11.80;99.90;;;;;;5077856;28;20068;-62
2021/10/11 09:01:32;;;;;;;8.38;1.80;;;11.90;99.90;;;;;;5073314;27;20063;-64
2021/10/11 09:04:17;;;;;;;9.88;2.13;;;12.00;99.90;;;;;;5112516;27;20040;-63
2021/10/11 09:07:05;;;;;;;12.90;2.10;;;12.10;99.90;;;;;;5077693;28;20062;-63
2021/10/11 09:09:32;;;;;;;9.57;1.80;;;12.20;99.90;;;;;;5107121;28;20097;-64
2021/10/11 09:11:59;;;;;;;9.80;2.08;;;12.30;99.90;;;;;;5089251;28;20058;-63
2021/10/11 09:14:26;;;;;;;12.98;1.90;;;12.40;99.90;;;;;;5090316;28;20043;-63
2021/10/11 09:17:05;;;;;;;9.50;1.73;;;12.40;99.90;;;;;;5095302;28;20043;-63
2021/10/11 09:19:36;;;;;;;13.88;1.92;;;12.40;99.90;;;;;;5106948;28;20503;-63
2021/10/11 09:22:03;;;;;;;12.98;2.90;;;12.50;99.90;;;;;;5088593;28;20189;-63
2021/10/11 09:24:29;;;;;;;10.73;2.67;;;12.50;99.90;;;;;;5089626;28;20571;-64
2021/10/11 09:26:59;;;;;;;14.32;2.60;;;12.60;99.90;;;;;;5093530;28;20056;-63
2021/10/11 09:29:36;;;;;;;10.88;1.85;;;12.70;99.90;;;;;;5093168;28;20547;-62
2021/10/11 09:32:08;;;;;;;10.65;2.13;;;12.80;99.90;;;;;;5090287;28;20189;-63
2021/10/11 09:34:36;;;;;;;11.63;1.90;;;13.00;99.90;;;;;;5083109;28;20552;-63
2021/10/11 09:37:08;;;;;;;9.10;1.92;;;13.10;99.90;;;;;;5089475;28;20046;-63
2021/10/11 09:39:37;;;;;;;13.38;2.47;;;13.10;99.90;;;;;;5101262;28;20040;-63
2021/10/11 09:42:05;;;;;;;10.65;2.15;;;13.10;99.90;;;;;;5089615;28;20073;-63
2021/10/11 09:44:31;;;;;;;12.50;2.30;;;13.20;99.90;;;;;;5107492;28;20040;-63
2021/10/11 09:47:02;;;;;;;10.52;2.15;;;13.30;99.90;;;;;;5093091;28;20074;-63
2021/10/11 09:49:28;;;;;;;7.05;1.75;;;13.30;99.90;;;;;;5075876;28;20543;-62
2021/10/11 09:51:56;;;;;;;9.27;1.55;;;13.50;99.90;;;;;;5093572;27;20076;-63
2021/10/11 09:54:23;;;;;;;10.23;1.65;;;13.60;99.90;;;;;;5108780;27;20075;-63
2021/10/11 09:56:49;;;;;;;8.40;2.22;;;13.70;99.90;;;;;;5095087;28;20120;-62
2021/10/11 09:59:18;;;;;;;8.57;1.40;;;13.70;99.90;;;;;;5107750;28;20084;-63
2021/10/11 10:01:46;;;;;;;10.85;1.67;;;13.70;99.90;;;;;;5083802;28;20056;-63
2021/10/11 10:04:22;;;;;;;8.70;1.98;;;13.70;99.90;;;;;;5097940;28;20047;-63
2021/10/11 10:06:50;;;;;;;7.93;1.90;;;13.80;99.90;;;;;;5079477;28;20043;-63
2021/10/11 10:09:17;;;;;;;10.13;2.08;;;13.80;99.90;;;;;;5108412;28;20055;-62
2021/10/11 10:11:44;;;;;;;12.68;2.05;;;13.80;99.90;;;;;;5082869;28;20059;-62
2021/10/11 10:14:24;;;;;;;10.10;1.70;;;13.90;99.90;;;;;;5079493;28;20153;-63
2021/10/11 10:16:51;;;;;;;13.85;1.83;;;13.90;99.90;;;;;;5081257;28;20055;-63
2021/10/11 10:19:17;;;;;;;10.80;2.50;;;14.00;99.90;;;;;;5098278;28;20032;-62
2021/10/11 10:21:42;;;;;;;9.63;1.77;;;14.10;99.90;;;;;;5089164;28;20415;-63
2021/10/11 10:24:08;;;;;;;8.77;1.58;;;14.10;99.90;;;;;;5103448;28;20064;-63
2021/10/11 10:26:35;;;;;;;10.68;1.60;;;14.20;99.90;;;;;;5088647;28;20069;-62
2021/10/11 10:29:16;;;;;;;7.50;1.60;;;14.40;99.90;;;;;;5099053;28;20052;-62
2021/10/11 10:31:42;;;;;;;8.20;1.40;;;14.50;99.90;;;;;;5089956;28;20055;-63
2021/10/11 10:34:23;;;;;;;7.88;1.63;;;14.50;99.90;;;;;;5097041;28;20074;-62
2021/10/11 10:37:04;;;;;;;10.45;1.50;;;14.50;99.90;;;;;;5087585;28;20335;-62
2021/10/11 10:40:05;;;;;;;10.88;1.60;;;14.50;99.90;;;;;;5083461;28;20060;-64
2021/10/11 10:42:31;;;;;;;6.28;1.63;;;14.60;99.90;;;;;;5087331;28;20048;-63
2021/10/11 10:45:00;;;;;;;6.60;1.60;;;14.70;99.90;;;;;;5095411;28;20050;-62
2021/10/11 10:47:36;;;;;;;6.10;1.20;;;14.70;99.90;;;;;;5088692;28;20146;-62
2021/10/11 10:50:12;;;;;;;11.15;1.70;;;14.70;99.90;;;;;;5089182;28;20032;-62
2021/10/11 10:52:38;;;;;;;6.57;1.60;;;14.80;99.90;;;;;;5078562;28;20432;-63
2021/10/11 10:55:04;;;;;;;5.80;1.58;;;14.80;99.90;;;;;;5086353;28;20491;-62
2021/10/11 10:57:31;;;;;;;7.32;1.40;;;14.90;99.90;;;;;;5088754;28;20047;-63
2021/10/11 11:00:13;;;;;;;7.57;1.23;;;15.10;99.90;;;;;;5104580;28;20096;-63
2021/10/11 11:02:42;;;;;;;6.65;1.48;;;15.20;99.90;;;;;;5087027;28;20067;-62
2021/10/11 11:05:08;;;;;;;8.73;1.70;;;15.30;99.90;;;;;;5081541;28;20044;-62
2021/10/11 11:07:38;;;;;;;9.23;2.10;;;15.40;99.90;;;;;;5093736;28;20052;-62
2021/10/11 11:10:18;;;;;;;4.93;1.10;;;15.50;99.90;;;;;;5087820;28;20120;-63
2021/10/11 11:12:45;;;;;;;;;;;15.40;99.90;;;;;;5088696;28;20062;-63
2021/10/11 11:15:22;;;;;;;7.32;1.40;;;15.60;99.90;;;;;;5090665;28;19978;-63
2021/10/11 11:17:48;;;;;;;10.30;1.30;;;15.70;99.90;;;;;;5088208;28;20127;-62
2021/10/11 11:20:18;;;;;;;10.70;1.48;;;15.70;99.90;;;;;;5092940;28;20131;-63
2021/10/11 11:22:45;;;;;;;11.68;1.42;;;15.50;99.90;;;;;;5091215;28;20138;-62
2021/10/11 11:25:11;;;;;;;9.13;2.05;;;15.40;99.90;;;;;;5097873;28;20127;-63
2021/10/11 11:27:41;;;;;;;4.97;1.10;;;15.50;99.90;;;;;;5090904;28;20077;-63
2021/10/11 11:30:11;;;;;;;11.18;1.60;;;15.60;99.90;;;;;;5115400;28;20047;-63
2021/10/11 11:32:45;;;;;;;;;;;15.70;99.90;;;;;;5090986;28;20056;-62
2021/10/11 11:35:21;;;;;;;5.65;0.85;;;15.60;99.90;;;;;;5095505;28;19931;-62
2021/10/11 11:37:49;;;;;;;3.55;0.80;;;15.10;99.90;;;;;;5098727;27;20043;-62
2021/10/11 11:40:18;;;;;;;3.90;1.20;;;14.60;99.90;;;;;;5105979;28;20091;-62
2021/10/11 11:42:46;;;;;;;4.53;1.03;;;14.20;99.90;;;;;;5103349;28;20074;-62
2021/10/11 11:45:13;;;;;;;6.07;1.42;;;14.00;99.90;;;;;;5100209;28;20137;-62
2021/10/11 11:47:39;;;;;;;8.35;1.20;;;13.80;99.90;;;;;;5094742;28;20242;-62
2021/10/11 11:50:24;;;;;;;5.78;1.30;;;13.70;99.90;;;;;;5101349;28;20048;-62
2021/10/11 11:53:08;;;;;;;8.90;1.45;;;13.80;99.90;;;;;;5092280;28;20083;-62
2021/10/11 11:55:34;;;;;;;4.47;0.90;;;13.90;99.90;;;;;;5099111;28;20558;-62
2021/10/11 11:58:00;;;;;;;3.30;0.90;;;14.00;99.90;;;;;;5091609;28;20078;-62
2021/10/11 12:00:30;;;;;;;10.23;2.00;;;14.20;99.90;;;;;;5105322;28;20043;-62
2021/10/11 12:02:57;;;;;;;6.38;1.15;;;14.40;99.90;;;;;;5091901;28;20151;-62
2021/10/11 12:05:23;;;;;;;6.82;1.40;;;14.80;99.90;;;;;;5087321;28;20495;-62
2021/10/11 12:07:49;;;;;;;7.35;1.35;;;15.00;99.90;;;;;;5091665;28;20120;-62
2021/10/11 12:10:23;;;;;;;6.93;1.05;;;15.10;99.90;;;;;;5110787;27;20135;-63
2021/10/11 12:13:02;;;;;;;5.97;1.17;;;15.20;99.90;;;;;;5094221;28;20490;-62
2021/10/11 12:15:30;;;;;;;9.40;1.23;;;15.50;99.90;;;;;;5114818;27;20071;-62
2021/10/11 12:18:11;;;;;;;8.35;1.35;;;15.50;99.90;;;;;;5093586;28;20048;-62
2021/10/11 12:20:45;;;;;;;5.78;1.10;;;15.80;99.90;;;;;;5091024;28;20567;-62
2021/10/11 12:23:12;;;;;;;2.38;0.77;;;15.40;99.90;;;;;;5106811;27;20112;-63
2021/10/11 12:25:37;;;;;;;3.28;0.60;;;14.80;99.90;;;;;;5106230;28;20036;-62
2021/10/11 12:28:17;;;;;;;3.10;0.73;;;14.60;99.90;;;;;;5097645;28;20051;-64
2021/10/11 12:30:45;;;;;;;2.45;0.70;;;14.30;99.90;;;;;;5094359;28;20158;-63
2021/10/11 12:33:13;;;;;;;2.50;0.85;;;14.30;99.90;;;;;;5096358;27;20154;-62
2021/10/11 12:35:41;;;;;;;2.03;0.50;;;14.20;99.90;;;;;;5109834;27;20071;-62
2021/10/11 12:38:11;;;;;;;3.33;0.75;;;14.20;99.90;;;;;;5089276;28;20520;-62
2021/10/11 12:40:40;;;;;;;3.60;0.75;;;14.30;99.90;;;;;;5101057;28;20051;-62
2021/10/11 12:43:18;;;;;;;2.80;0.55;;;14.50;99.90;;;;;;5091365;28;20050;-62
2021/10/11 12:46:16;;;;;;;4.60;0.90;;;14.70;99.90;;;;;;5097988;28;20051;-62